sensor_id;sensor_type;location;lat;lon;timestamp;pressure;altitude;pressure_sealevel;temperature;humidity
5753;BME280;2901;42.140;24.760;2023-03-25T00:02:24;99234.03;;;10.68;89.82
5753;BME280;2901;42.140;24.760;2023-03-25T00:04:52;99228.84;;;10.68;90.14
5753;BME280;2901;42.140;24.760;2023-03-25T00:07:21;99238.44;;;10.63;89.66
5753;BME280;2901;42.140;24.760;2023-03-25T00:09:47;99232.47;;;10.55;90.31
5753;BME280;2901;42.140;24.760;2023-03-25T00:12:14;99231.75;;;10.40;90.55
5753;BME280;2901;42.140;24.760;2023-03-25T00:14:40;99230.03;;;10.38;90.25
5753;BME280;2901;42.140;24.760;2023-03-25T00:17:06;99221.47;;;10.31;90.42
5753;BME280;2901;42.140;24.760;2023-03-25T00:19:33;99224.13;;;10.27;90.58
5753;BME280;2901;42.140;24.760;2023-03-25T00:22:00;99223.25;;;10.28;90.70
5753;BME280;2901;42.140;24.760;2023-03-25T00:24:26;99230.19;;;10.21;91.21
5753;BME280;2901;42.140;24.760;2023-03-25T00:26:51;99225.91;;;10.20;91.29
5753;BME280;2901;42.140;24.760;2023-03-25T00:29:18;99226.75;;;10.22;91.46
5753;BME280;2901;42.140;24.760;2023-03-25T00:31:45;99226.81;;;10.13;92.03
5753;BME280;2901;42.140;24.760;2023-03-25T00:34:11;99228.53;;;10.11;92.18
5753;BME280;2901;42.140;24.760;2023-03-25T00:36:39;99210.44;;;10.16;92.15
5753;BME280;2901;42.140;24.760;2023-03-25T00:39:06;99219.00;;;10.21;91.75
5753;BME280;2901;42.140;24.760;2023-03-25T00:41:31;99212.91;;;10.25;91.82
5753;BME280;2901;42.140;24.760;2023-03-25T00:43:58;99205.13;;;10.29;91.46
5753;BME280;2901;42.140;24.760;2023-03-25T00:46:26;99214.53;;;10.36;91.64
5753;BME280;2901;42.140;24.760;2023-03-25T00:48:53;99198.13;;;10.39;91.94
5753;BME280;2901;42.140;24.760;2023-03-25T00:51:20;99200.66;;;10.44;91.99
5753;BME280;2901;42.140;24.760;2023-03-25T00:53:47;99201.56;;;10.38;92.05
5753;BME280;2901;42.140;24.760;2023-03-25T00:56:13;99202.56;;;10.26;92.88
5753;BME280;2901;42.140;24.760;2023-03-25T00:58:38;99200.00;;;10.22;92.86
5753;BME280;2901;42.140;24.760;2023-03-25T01:01:15;99195.69;;;10.21;93.66
5753;BME280;2901;42.140;24.760;2023-03-25T01:03:41;99194.88;;;10.20;94.03
5753;BME280;2901;42.140;24.760;2023-03-25T01:06:12;99174.25;;;10.10;93.92
5753;BME280;2901;42.140;24.760;2023-03-25T01:08:39;99195.78;;;10.16;94.00
5753;BME280;2901;42.140;24.760;2023-03-25T01:11:05;99193.97;;;10.21;94.04
5753;BME280;2901;42.140;24.760;2023-03-25T01:13:33;99194.91;;;10.17;94.44
5753;BME280;2901;42.140;24.760;2023-03-25T01:15:58;99194.09;;;10.06;95.33
5753;BME280;2901;42.140;24.760;2023-03-25T01:18:24;99186.34;;;10.06;96.08
5753;BME280;2901;42.140;24.760;2023-03-25T01:20:49;99181.13;;;10.11;95.94
5753;BME280;2901;42.140;24.760;2023-03-25T01:23:15;99174.22;;;10.13;95.46
5753;BME280;2901;42.140;24.760;2023-03-25T01:25:42;99178.53;;;10.12;95.33
5753;BME280;2901;42.140;24.760;2023-03-25T01:28:08;99176.78;;;10.16;95.61
5753;BME280;2901;42.140;24.760;2023-03-25T01:30:34;99169.03;;;10.16;95.54
5753;BME280;2901;42.140;24.760;2023-03-25T01:32:59;99171.63;;;10.17;95.55
5753;BME280;2901;42.140;24.760;2023-03-25T01:35:24;99165.63;;;10.14;95.69
5753;BME280;2901;42.140;24.760;2023-03-25T01:37:50;99163.00;;;10.12;96.05
5753;BME280;2901;42.140;24.760;2023-03-25T01:40:20;99174.38;;;9.95;96.63
5753;BME280;2901;42.140;24.760;2023-03-25T01:42:47;99163.28;;;9.83;97.49
5753;BME280;2901;42.140;24.760;2023-03-25T01:47:57;99160.00;;;9.62;98.84
5753;BME280;2901;42.140;24.760;2023-03-25T01:50:24;99154.88;;;9.56;99.02
5753;BME280;2901;42.140;24.760;2023-03-25T01:52:53;99163.56;;;9.49;99.11
5753;BME280;2901;42.140;24.760;2023-03-25T01:55:21;99161.03;;;9.44;99.96
5753;BME280;2901;42.140;24.760;2023-03-25T01:57:48;99148.09;;;9.43;100.00
5753;BME280;2901;42.140;24.760;2023-03-25T02:00:18;99145.50;;;9.43;100.00
5753;BME280;2901;42.140;24.760;2023-03-25T02:02:45;99150.72;;;9.41;100.00
5753;BME280;2901;42.140;24.760;2023-03-25T02:05:33;99144.72;;;9.37;100.00
5753;BME280;2901;42.140;24.760;2023-03-25T02:08:03;99145.50;;;9.43;99.57
5753;BME280;2901;42.140;24.760;2023-03-25T02:10:30;99136.00;;;9.51;99.64
5753;BME280;2901;42.140;24.760;2023-03-25T02:12:56;99128.19;;;9.55;99.15
5753;BME280;2901;42.140;24.760;2023-03-25T02:15:23;99126.47;;;9.57;99.38
5753;BME280;2901;42.140;24.760;2023-03-25T02:18:16;99134.13;;;9.68;98.77
5753;BME280;2901;42.140;24.760;2023-03-25T02:28:54;99134.31;;;9.48;98.90
5753;BME280;2901;42.140;24.760;2023-03-25T02:39:24;99124.03;;;9.37;99.98
5753;BME280;2901;42.140;24.760;2023-03-25T02:42:05;99124.97;;;9.27;100.00
5753;BME280;2901;42.140;24.760;2023-03-25T02:47:07;99126.66;;;9.30;100.00
5753;BME280;2901;42.140;24.760;2023-03-25T02:49:37;99119.78;;;9.29;100.00
5753;BME280;2901;42.140;24.760;2023-03-25T02:52:15;99112.97;;;9.22;100.00
5753;BME280;2901;42.140;24.760;2023-03-25T02:54:42;99118.13;;;9.25;100.00
5753;BME280;2901;42.140;24.760;2023-03-25T02:57:11;99118.09;;;9.26;100.00
5753;BME280;2901;42.140;24.760;2023-03-25T02:59:38;99113.78;;;9.25;100.00
5753;BME280;2901;42.140;24.760;2023-03-25T03:02:09;99122.41;;;9.24;100.00
5753;BME280;2901;42.140;24.760;2023-03-25T03:04:52;99107.78;;;9.25;100.00
5753;BME280;2901;42.140;24.760;2023-03-25T03:07:22;99105.16;;;9.26;99.83
5753;BME280;2901;42.140;24.760;2023-03-25T03:13:06;99101.66;;;9.36;99.76
5753;BME280;2901;42.140;24.760;2023-03-25T03:15:37;99095.63;;;9.36;99.77
5753;BME280;2901;42.140;24.760;2023-03-25T03:24:20;99089.72;;;9.20;99.93
5753;BME280;2901;42.140;24.760;2023-03-25T03:26:54;99088.03;;;9.13;100.00
5753;BME280;2901;42.140;24.760;2023-03-25T03:29:33;99094.13;;;9.08;100.00
5753;BME280;2901;42.140;24.760;2023-03-25T03:32:06;99085.56;;;9.00;100.00
5753;BME280;2901;42.140;24.760;2023-03-25T03:34:43;99089.03;;;8.97;100.00
5753;BME280;2901;42.140;24.760;2023-03-25T03:37:15;99082.13;;;9.01;100.00
5753;BME280;2901;42.140;24.760;2023-03-25T03:39:44;99086.41;;;9.00;100.00
5753;BME280;2901;42.140;24.760;2023-03-25T03:42:25;99085.59;;;8.98;100.00
5753;BME280;2901;42.140;24.760;2023-03-25T03:44:55;99088.19;;;8.95;100.00
5753;BME280;2901;42.140;24.760;2023-03-25T03:47:27;99086.47;;;8.93;100.00
5753;BME280;2901;42.140;24.760;2023-03-25T03:49:58;99090.81;;;8.89;100.00
5753;BME280;2901;42.140;24.760;2023-03-25T03:52:33;99100.28;;;8.82;100.00
5753;BME280;2901;42.140;24.760;2023-03-25T03:55:08;99092.59;;;8.76;100.00
5753;BME280;2901;42.140;24.760;2023-03-25T03:57:52;99080.56;;;8.74;100.00
5753;BME280;2901;42.140;24.760;2023-03-25T04:00:26;99083.09;;;8.80;100.00
5753;BME280;2901;42.140;24.760;2023-03-25T04:03:18;99075.34;;;8.80;100.00
5753;BME280;2901;42.140;24.760;2023-03-25T04:05:52;99083.09;;;8.84;100.00
5753;BME280;2901;42.140;24.760;2023-03-25T04:08:28;99085.69;;;8.80;100.00
5753;BME280;2901;42.140;24.760;2023-03-25T04:10:58;99087.44;;;8.76;100.00
5753;BME280;2901;42.140;24.760;2023-03-25T04:13:29;99089.13;;;8.82;100.00
5753;BME280;2901;42.140;24.760;2023-03-25T04:15:57;99084.81;;;8.84;100.00
5753;BME280;2901;42.140;24.760;2023-03-25T04:18:24;99088.25;;;8.89;100.00
5753;BME280;2901;42.140;24.760;2023-03-25T04:20:50;99089.91;;;8.93;100.00
5753;BME280;2901;42.140;24.760;2023-03-25T04:23:15;99091.59;;;8.97;100.00
5753;BME280;2901;42.140;24.760;2023-03-25T04:25:42;99094.16;;;9.02;100.00
5753;BME280;2901;42.140;24.760;2023-03-25T04:28:09;99102.78;;;8.98;100.00
5753;BME280;2901;42.140;24.760;2023-03-25T04:30:38;99103.69;;;8.95;100.00
5753;BME280;2901;42.140;24.760;2023-03-25T04:33:04;99109.72;;;8.96;100.00
5753;BME280;2901;42.140;24.760;2023-03-25T04:35:29;99107.09;;;8.97;100.00
5753;BME280;2901;42.140;24.760;2023-03-25T04:37:57;99101.03;;;9.00;100.00
5753;BME280;2901;42.140;24.760;2023-03-25T04:40:24;99096.69;;;9.09;100.00
5753;BME280;2901;42.140;24.760;2023-03-25T04:42:50;99100.97;;;9.15;99.68
5753;BME280;2901;42.140;24.760;2023-03-25T04:45:17;99098.34;;;9.16;99.08
5753;BME280;2901;42.140;24.760;2023-03-25T04:47:45;99092.31;;;9.16;99.24
5753;BME280;2901;42.140;24.760;2023-03-25T04:50:23;99101.84;;;9.11;98.93
5753;BME280;2901;42.140;24.760;2023-03-25T04:52:49;99108.72;;;9.15;99.17
5753;BME280;2901;42.140;24.760;2023-03-25T04:55:15;99115.56;;;9.20;98.81
5753;BME280;2901;42.140;24.760;2023-03-25T04:57:48;99100.03;;;9.25;98.35
5753;BME280;2901;42.140;24.760;2023-03-25T05:00:16;99110.25;;;9.37;97.95
5753;BME280;2901;42.140;24.760;2023-03-25T05:02:46;99110.22;;;9.38;98.04
5753;BME280;2901;42.140;24.760;2023-03-25T05:05:14;99112.78;;;9.45;97.66
5753;BME280;2901;42.140;24.760;2023-03-25T05:07:49;99100.69;;;9.47;97.13
5753;BME280;2901;42.140;24.760;2023-03-25T05:10:16;99104.91;;;9.55;96.99
5753;BME280;2901;42.140;24.760;2023-03-25T05:12:42;99095.41;;;9.60;97.01
5753;BME280;2901;42.140;24.760;2023-03-25T05:15:09;99094.53;;;9.63;96.15
5753;BME280;2901;42.140;24.760;2023-03-25T05:17:35;99096.28;;;9.61;96.01
5753;BME280;2901;42.140;24.760;2023-03-25T05:20:01;99108.34;;;9.59;96.19
5753;BME280;2901;42.140;24.760;2023-03-25T05:22:27;99097.19;;;9.52;96.73
5753;BME280;2901;42.140;24.760;2023-03-25T05:24:52;99103.25;;;9.50;96.72
5753;BME280;2901;42.140;24.760;2023-03-25T05:27:18;99098.09;;;9.50;96.69
5753;BME280;2901;42.140;24.760;2023-03-25T05:29:45;99097.16;;;9.55;96.24
5753;BME280;2901;42.140;24.760;2023-03-25T05:32:10;99098.88;;;9.58;96.05
5753;BME280;2901;42.140;24.760;2023-03-25T05:34:38;99103.09;;;9.66;95.92
5753;BME280;2901;42.140;24.760;2023-03-25T05:37:04;99101.31;;;9.74;95.44
5753;BME280;2901;42.140;24.760;2023-03-25T05:39:29;99094.34;;;9.82;95.54
5753;BME280;2901;42.140;24.760;2023-03-25T05:41:55;99098.56;;;9.89;95.04
5753;BME280;2901;42.140;24.760;2023-03-25T05:44:27;99086.47;;;9.93;94.56
5753;BME280;2901;42.140;24.760;2023-03-25T05:46:52;99085.50;;;10.03;94.21
5753;BME280;2901;42.140;24.760;2023-03-25T05:49:19;99082.81;;;10.12;93.58
5753;BME280;2901;42.140;24.760;2023-03-25T05:51:45;99083.63;;;10.20;92.92
5753;BME280;2901;42.140;24.760;2023-03-25T05:54:13;99084.31;;;10.33;93.11
5753;BME280;2901;42.140;24.760;2023-03-25T05:56:39;99084.16;;;10.45;92.21
5753;BME280;2901;42.140;24.760;2023-03-25T05:59:05;99086.63;;;10.56;92.38
5753;BME280;2901;42.140;24.760;2023-03-25T06:01:32;99089.94;;;10.64;90.66
5753;BME280;2901;42.140;24.760;2023-03-25T06:03:57;99087.25;;;10.73;89.97
5753;BME280;2901;42.140;24.760;2023-03-25T06:06:25;99085.53;;;10.72;90.52
5753;BME280;2901;42.140;24.760;2023-03-25T06:08:51;99079.50;;;10.71;90.99
5753;BME280;2901;42.140;24.760;2023-03-25T06:11:18;99087.03;;;10.88;91.01
5753;BME280;2901;42.140;24.760;2023-03-25T06:13:45;99087.69;;;11.02;90.22
5753;BME280;2901;42.140;24.760;2023-03-25T06:16:14;99084.91;;;11.14;90.31
5753;BME280;2901;42.140;24.760;2023-03-25T06:18:43;99082.09;;;11.29;89.41
5753;BME280;2901;42.140;24.760;2023-03-25T06:21:08;99093.88;;;11.49;88.95
5753;BME280;2901;42.140;24.760;2023-03-25T06:23:35;99090.19;;;11.62;87.24
5753;BME280;2901;42.140;24.760;2023-03-25T06:26:03;99083.88;;;11.76;87.29
5753;BME280;2901;42.140;24.760;2023-03-25T06:28:29;99080.22;;;11.88;85.51
5753;BME280;2901;42.140;24.760;2023-03-25T06:30:54;99081.09;;;11.87;84.76
5753;BME280;2901;42.140;24.760;2023-03-25T06:33:19;99082.84;;;11.88;85.46
5753;BME280;2901;42.140;24.760;2023-03-25T06:35:47;99081.84;;;11.95;84.89
5753;BME280;2901;42.140;24.760;2023-03-25T06:38:19;99076.34;;;12.10;84.66
5753;BME280;2901;42.140;24.760;2023-03-25T06:40:47;99078.53;;;12.30;82.79
5753;BME280;2901;42.140;24.760;2023-03-25T06:43:13;99075.81;;;12.37;82.52
5753;BME280;2901;42.140;24.760;2023-03-25T06:45:39;99079.16;;;12.42;81.86
5753;BME280;2901;42.140;24.760;2023-03-25T06:48:04;99080.66;;;12.53;82.45
5753;BME280;2901;42.140;24.760;2023-03-25T06:50:31;99068.97;;;12.72;81.70
5753;BME280;2901;42.140;24.760;2023-03-25T06:52:57;99074.59;;;12.92;81.11
5753;BME280;2901;42.140;24.760;2023-03-25T06:55:22;99075.94;;;13.08;78.76
5753;BME280;2901;42.140;24.760;2023-03-25T06:57:48;99077.56;;;13.15;77.69
5753;BME280;2901;42.140;24.760;2023-03-25T07:00:13;99069.44;;;13.27;77.86
5753;BME280;2901;42.140;24.760;2023-03-25T07:02:39;99081.41;;;13.36;76.54
5753;BME280;2901;42.140;24.760;2023-03-25T07:05:05;99068.25;;;13.42;76.75
5753;BME280;2901;42.140;24.760;2023-03-25T07:07:30;99071.72;;;13.41;76.62
5753;BME280;2901;42.140;24.760;2023-03-25T07:09:56;99071.66;;;13.44;76.20
5753;BME280;2901;42.140;24.760;2023-03-25T07:12:22;99068.06;;;13.48;76.15
5753;BME280;2901;42.140;24.760;2023-03-25T07:14:54;99066.94;;;13.60;76.77
5753;BME280;2901;42.140;24.760;2023-03-25T07:17:21;99073.38;;;13.79;75.35
5753;BME280;2901;42.140;24.760;2023-03-25T07:19:47;99066.78;;;13.96;74.23
5753;BME280;2901;42.140;24.760;2023-03-25T07:22:13;99066.25;;;14.16;73.92
5753;BME280;2901;42.140;24.760;2023-03-25T07:24:38;99065.28;;;14.20;72.38
5753;BME280;2901;42.140;24.760;2023-03-25T07:27:03;99074.81;;;14.21;71.42
5753;BME280;2901;42.140;24.760;2023-03-25T07:29:29;99062.66;;;14.20;71.67
5753;BME280;2901;42.140;24.760;2023-03-25T07:31:55;99061.59;;;14.27;71.90
5753;BME280;2901;42.140;24.760;2023-03-25T07:34:20;99066.63;;;14.35;71.68
5753;BME280;2901;42.140;24.760;2023-03-25T07:36:46;99064.13;;;14.30;69.65
5753;BME280;2901;42.140;24.760;2023-03-25T07:39:11;99053.00;;;14.25;70.01
5753;BME280;2901;42.140;24.760;2023-03-25T07:41:37;99057.34;;;14.25;70.26
5753;BME280;2901;42.140;24.760;2023-03-25T07:44:02;99050.84;;;14.39;70.22
5753;BME280;2901;42.140;24.760;2023-03-25T07:46:27;99047.28;;;14.43;70.33
5753;BME280;2901;42.140;24.760;2023-03-25T07:48:53;99042.06;;;14.43;70.24
5753;BME280;2901;42.140;24.760;2023-03-25T07:51:18;99046.19;;;14.50;69.70
5753;BME280;2901;42.140;24.760;2023-03-25T07:53:44;99031.00;;;14.65;69.90
5753;BME280;2901;42.140;24.760;2023-03-25T07:56:11;99039.75;;;14.91;69.33
5753;BME280;2901;42.140;24.760;2023-03-25T07:58:37;99043.50;;;15.09;67.81
5753;BME280;2901;42.140;24.760;2023-03-25T08:01:03;99032.72;;;15.20;67.36
5753;BME280;2901;42.140;24.760;2023-03-25T08:03:28;99025.84;;;15.43;66.94
5753;BME280;2901;42.140;24.760;2023-03-25T08:05:54;99034.91;;;15.60;66.20
5753;BME280;2901;42.140;24.760;2023-03-25T08:08:20;99032.88;;;15.68;65.18
5753;BME280;2901;42.140;24.760;2023-03-25T08:10:45;99018.06;;;15.68;64.85
5753;BME280;2901;42.140;24.760;2023-03-25T08:13:12;99022.75;;;15.83;65.24
5753;BME280;2901;42.140;24.760;2023-03-25T08:15:38;99015.97;;;16.02;64.00
5753;BME280;2901;42.140;24.760;2023-03-25T08:18:05;99007.28;;;16.25;63.08
5753;BME280;2901;42.140;24.760;2023-03-25T08:20:32;99013.72;;;16.40;60.99
5753;BME280;2901;42.140;24.760;2023-03-25T08:22:57;99013.59;;;16.43;61.13
5753;BME280;2901;42.140;24.760;2023-03-25T08:25:23;99014.22;;;16.49;60.79
5753;BME280;2901;42.140;24.760;2023-03-25T08:27:48;99026.88;;;16.60;60.85
5753;BME280;2901;42.140;24.760;2023-03-25T08:30:14;99023.56;;;16.78;60.36
5753;BME280;2901;42.140;24.760;2023-03-25T08:32:40;99014.78;;;17.02;59.05
5753;BME280;2901;42.140;24.760;2023-03-25T08:35:06;99021.06;;;16.97;58.60
5753;BME280;2901;42.140;24.760;2023-03-25T08:37:32;99023.28;;;16.86;59.25
5753;BME280;2901;42.140;24.760;2023-03-25T08:40:05;99014.09;;;16.97;59.31
5753;BME280;2901;42.140;24.760;2023-03-25T08:42:37;99015.72;;;17.22;58.40
5753;BME280;2901;42.140;24.760;2023-03-25T08:45:03;99011.16;;;17.47;56.98
5753;BME280;2901;42.140;24.760;2023-03-25T08:47:30;99008.34;;;17.51;56.21
5753;BME280;2901;42.140;24.760;2023-03-25T08:49:55;98992.19;;;17.42;55.82
5753;BME280;2901;42.140;24.760;2023-03-25T08:52:20;99006.91;;;17.44;56.64
5753;BME280;2901;42.140;24.760;2023-03-25T08:54:46;98989.84;;;17.56;56.26
5753;BME280;2901;42.140;24.760;2023-03-25T08:57:11;98986.91;;;17.63;56.18
5753;BME280;2901;42.140;24.760;2023-03-25T08:59:37;98971.06;;;17.67;56.35
5753;BME280;2901;42.140;24.760;2023-03-25T09:02:02;98977.41;;;17.81;56.42
5753;BME280;2901;42.140;24.760;2023-03-25T09:04:28;98975.44;;;18.05;55.51
5753;BME280;2901;42.140;24.760;2023-03-25T09:06:53;98967.91;;;18.18;54.07
5753;BME280;2901;42.140;24.760;2023-03-25T09:09:18;98966.19;;;18.35;53.65
5753;BME280;2901;42.140;24.760;2023-03-25T09:11:44;98956.13;;;18.45;53.62
5753;BME280;2901;42.140;24.760;2023-03-25T09:14:09;98946.63;;;18.61;52.83
5753;BME280;2901;42.140;24.760;2023-03-25T09:16:35;98950.47;;;18.73;51.91
5753;BME280;2901;42.140;24.760;2023-03-25T09:19:01;98943.44;;;18.90;51.91
5753;BME280;2901;42.140;24.760;2023-03-25T09:21:26;98932.59;;;18.98;51.36
5753;BME280;2901;42.140;24.760;2023-03-25T09:23:52;98922.88;;;19.17;50.72
5753;BME280;2901;42.140;24.760;2023-03-25T09:26:17;98920.06;;;19.37;50.35
5753;BME280;2901;42.140;24.760;2023-03-25T09:28:43;98922.00;;;19.68;49.44
5753;BME280;2901;42.140;24.760;2023-03-25T09:31:08;98918.06;;;19.92;48.57
5753;BME280;2901;42.140;24.760;2023-03-25T09:33:34;98922.09;;;20.15;47.79
5753;BME280;2901;42.140;24.760;2023-03-25T09:36:00;98922.84;;;20.17;47.90
5753;BME280;2901;42.140;24.760;2023-03-25T09:38:26;98914.28;;;20.13;47.54
5753;BME280;2901;42.140;24.760;2023-03-25T09:40:52;98911.91;;;20.09;47.91
5753;BME280;2901;42.140;24.760;2023-03-25T09:46:13;98905.59;;;20.44;47.47
5753;BME280;2901;42.140;24.760;2023-03-25T09:48:43;98901.25;;;20.75;47.40
5753;BME280;2901;42.140;24.760;2023-03-25T09:56:35;98888.91;;;21.20;47.25
5753;BME280;2901;42.140;24.760;2023-03-25T09:59:17;98890.06;;;21.45;46.44
5753;BME280;2901;42.140;24.760;2023-03-25T10:02:17;98879.16;;;21.65;45.86
5753;BME280;2901;42.140;24.760;2023-03-25T10:10:34;98858.53;;;21.71;45.27
5753;BME280;2901;42.140;24.760;2023-03-25T10:15:50;98844.22;;;21.47;46.31
5753;BME280;2901;42.140;24.760;2023-03-25T10:26:55;98822.56;;;21.85;45.12
5753;BME280;2901;42.140;24.760;2023-03-25T10:29:42;98810.72;;;21.92;45.74
5753;BME280;2901;42.140;24.760;2023-03-25T10:32:18;98807.41;;;22.02;44.43
5753;BME280;2901;42.140;24.760;2023-03-25T10:34:50;98806.25;;;22.06;44.13
5753;BME280;2901;42.140;24.760;2023-03-25T10:37:44;98805.28;;;22.21;43.84
5753;BME280;2901;42.140;24.760;2023-03-25T10:45:22;98790.25;;;22.75;42.81
5753;BME280;2901;42.140;24.760;2023-03-25T10:47:50;98778.44;;;22.81;42.91
5753;BME280;2901;42.140;24.760;2023-03-25T10:50:16;98780.66;;;22.74;43.41
5753;BME280;2901;42.140;24.760;2023-03-25T10:52:44;98779.31;;;22.82;43.38
5753;BME280;2901;42.140;24.760;2023-03-25T10:55:27;98774.31;;;22.90;42.98
5753;BME280;2901;42.140;24.760;2023-03-25T10:57:53;98772.63;;;22.76;42.40
5753;BME280;2901;42.140;24.760;2023-03-25T11:00:20;98775.09;;;22.92;42.65
5753;BME280;2901;42.140;24.760;2023-03-25T11:02:49;98767.59;;;23.11;42.09
5753;BME280;2901;42.140;24.760;2023-03-25T11:05:20;98756.69;;;23.28;41.39
5753;BME280;2901;42.140;24.760;2023-03-25T11:07:57;98749.81;;;23.51;40.72
5753;BME280;2901;42.140;24.760;2023-03-25T11:10:31;98744.72;;;23.60;40.54
5753;BME280;2901;42.140;24.760;2023-03-25T11:12:59;98746.94;;;23.66;39.88
5753;BME280;2901;42.140;24.760;2023-03-25T11:15:34;98742.94;;;23.36;40.20
5753;BME280;2901;42.140;24.760;2023-03-25T11:20:44;98728.50;;;23.41;40.03
5753;BME280;2901;42.140;24.760;2023-03-25T11:23:32;98731.28;;;23.38;40.10
5753;BME280;2901;42.140;24.760;2023-03-25T11:26:11;98720.31;;;23.32;39.95
5753;BME280;2901;42.140;24.760;2023-03-25T11:28:43;98717.47;;;23.47;40.85
5753;BME280;2901;42.140;24.760;2023-03-25T11:33:35;98712.50;;;23.43;40.78
5753;BME280;2901;42.140;24.760;2023-03-25T11:38:39;98699.78;;;23.60;39.19
5753;BME280;2901;42.140;24.760;2023-03-25T11:41:05;98701.63;;;23.47;39.59
5753;BME280;2901;42.140;24.760;2023-03-25T11:43:37;98691.50;;;23.41;39.88
5753;BME280;2901;42.140;24.760;2023-03-25T11:46:22;98689.28;;;23.22;40.32
5753;BME280;2901;42.140;24.760;2023-03-25T11:48:48;98675.63;;;23.28;40.02
5753;BME280;2901;42.140;24.760;2023-03-25T11:51:22;98678.25;;;23.28;39.83
5753;BME280;2901;42.140;24.760;2023-03-25T11:53:56;98669.38;;;23.42;40.18
5753;BME280;2901;42.140;24.760;2023-03-25T11:56:29;98650.28;;;23.62;39.44
5753;BME280;2901;42.140;24.760;2023-03-25T11:58:58;98647.69;;;23.50;39.53
5753;BME280;2901;42.140;24.760;2023-03-25T12:01:28;98652.44;;;23.57;39.53
5753;BME280;2901;42.140;24.760;2023-03-25T12:04:13;98648.66;;;23.72;39.64
5753;BME280;2901;42.140;24.760;2023-03-25T12:09:17;98645.22;;;23.83;38.60
5753;BME280;2901;42.140;24.760;2023-03-25T12:15:10;98629.63;;;24.15;37.96
5753;BME280;2901;42.140;24.760;2023-03-25T12:20:22;98622.13;;;24.09;37.78
5753;BME280;2901;42.140;24.760;2023-03-25T12:23:02;98626.88;;;24.16;37.64
5753;BME280;2901;42.140;24.760;2023-03-25T12:25:31;98612.31;;;24.22;37.47
5753;BME280;2901;42.140;24.760;2023-03-25T12:28:02;98614.97;;;24.22;37.03
5753;BME280;2901;42.140;24.760;2023-03-25T12:42:11;98594.09;;;24.52;37.65
5753;BME280;2901;42.140;24.760;2023-03-25T12:44:48;98592.41;;;24.62;37.16
5753;BME280;2901;42.140;24.760;2023-03-25T12:50:14;98588.56;;;24.77;37.89
5753;BME280;2901;42.140;24.760;2023-03-25T12:52:57;98577.00;;;24.90;37.58
5753;BME280;2901;42.140;24.760;2023-03-25T13:11:20;98552.41;;;25.10;36.11
5753;BME280;2901;42.140;24.760;2023-03-25T13:13:50;98545.91;;;25.14;36.51
5753;BME280;2901;42.140;24.760;2023-03-25T13:16:22;98546.88;;;25.13;37.02
5753;BME280;2901;42.140;24.760;2023-03-25T13:19:22;98541.72;;;25.11;37.04
5753;BME280;2901;42.140;24.760;2023-03-25T13:21:55;98539.22;;;24.99;37.35
5753;BME280;2901;42.140;24.760;2023-03-25T13:24:29;98532.34;;;24.96;37.50
5753;BME280;2901;42.140;24.760;2023-03-25T13:26:59;98529.81;;;24.95;37.28
5753;BME280;2901;42.140;24.760;2023-03-25T13:29:38;98529.13;;;24.93;37.15
5753;BME280;2901;42.140;24.760;2023-03-25T13:32:14;98532.34;;;24.96;36.96
5753;BME280;2901;42.140;24.760;2023-03-25T13:34:53;98526.22;;;24.85;36.83
5753;BME280;2901;42.140;24.760;2023-03-25T13:39:59;98529.59;;;24.87;37.21
5753;BME280;2901;42.140;24.760;2023-03-25T13:45:50;98520.44;;;24.91;37.50
5753;BME280;2901;42.140;24.760;2023-03-25T13:51:10;98517.78;;;25.02;37.14
5753;BME280;2901;42.140;24.760;2023-03-25T13:53:49;98514.88;;;25.05;37.11
5753;BME280;2901;42.140;24.760;2023-03-25T14:04:23;98503.84;;;24.89;36.49
5753;BME280;2901;42.140;24.760;2023-03-25T14:07:09;98502.63;;;24.93;36.89
5753;BME280;2901;42.140;24.760;2023-03-25T14:12:42;98491.56;;;24.88;36.93
5753;BME280;2901;42.140;24.760;2023-03-25T14:15:34;98492.50;;;24.87;36.34
5753;BME280;2901;42.140;24.760;2023-03-25T14:18:03;98489.25;;;24.83;36.75
5753;BME280;2901;42.140;24.760;2023-03-25T14:20:34;98487.59;;;24.82;36.81
5753;BME280;2901;42.140;24.760;2023-03-25T14:23:03;98486.72;;;24.70;37.18
5753;BME280;2901;42.140;24.760;2023-03-25T14:28:01;98480.72;;;24.57;36.86
5753;BME280;2901;42.140;24.760;2023-03-25T14:30:28;98474.22;;;24.50;36.97
5753;BME280;2901;42.140;24.760;2023-03-25T14:32:55;98469.22;;;24.36;37.35
5753;BME280;2901;42.140;24.760;2023-03-25T14:40:59;98462.19;;;24.02;37.32
5753;BME280;2901;42.140;24.760;2023-03-25T14:48:36;98460.25;;;23.82;37.25
5753;BME280;2901;42.140;24.760;2023-03-25T14:53:39;98457.56;;;23.59;38.13
5753;BME280;2901;42.140;24.760;2023-03-25T14:56:07;98453.31;;;23.46;38.40
5753;BME280;2901;42.140;24.760;2023-03-25T14:58:39;98458.41;;;23.36;38.87
5753;BME280;2901;42.140;24.760;2023-03-25T15:01:09;98458.31;;;23.38;39.07
5753;BME280;2901;42.140;24.760;2023-03-25T15:03:38;98459.13;;;23.27;38.99
5753;BME280;2901;42.140;24.760;2023-03-25T15:06:09;98463.78;;;23.23;39.47
5753;BME280;2901;42.140;24.760;2023-03-25T15:08:41;98460.22;;;23.12;39.69
5753;BME280;2901;42.140;24.760;2023-03-25T15:11:15;98466.94;;;23.05;40.24
5753;BME280;2901;42.140;24.760;2023-03-25T15:13:44;98470.53;;;23.04;40.17
5753;BME280;2901;42.140;24.760;2023-03-25T15:16:54;98477.22;;;22.97;40.46
5753;BME280;2901;42.140;24.760;2023-03-25T15:19:20;98477.91;;;22.88;42.22
5753;BME280;2901;42.140;24.760;2023-03-25T15:22:10;98481.25;;;22.90;42.55
5753;BME280;2901;42.140;24.760;2023-03-25T15:24:42;98476.19;;;22.87;42.84
5753;BME280;2901;42.140;24.760;2023-03-25T15:56:16;98518.75;;;21.95;47.92
5753;BME280;2901;42.140;24.760;2023-03-25T16:01:19;98531.88;;;21.83;48.95
5753;BME280;2901;42.140;24.760;2023-03-25T16:04:02;98537.38;;;21.80;49.02
5753;BME280;2901;42.140;24.760;2023-03-25T16:06:32;98547.91;;;21.80;49.21
5753;BME280;2901;42.140;24.760;2023-03-25T16:09:00;98551.91;;;21.72;50.02
5753;BME280;2901;42.140;24.760;2023-03-25T16:11:27;98558.53;;;21.65;50.05
5753;BME280;2901;42.140;24.760;2023-03-25T16:14:10;98557.16;;;21.60;50.69
5753;BME280;2901;42.140;24.760;2023-03-25T16:16:39;98576.81;;;21.54;51.42
5753;BME280;2901;42.140;24.760;2023-03-25T16:19:09;98565.38;;;21.41;51.99
5753;BME280;2901;42.140;24.760;2023-03-25T16:21:36;98593.97;;;21.47;54.30